createdAt,value
2023-04-26T00:01:58.822Z,95.10
2023-04-26T00:04:25.877Z,95.10
2023-04-26T00:06:52.791Z,95.10
2023-04-26T00:09:19.691Z,95.10
2023-04-26T00:11:46.777Z,95.10
2023-04-26T00:14:13.748Z,95.10
2023-04-26T00:16:40.634Z,95.10
2023-04-26T00:19:07.421Z,95.10
2023-04-26T00:21:35.204Z,95.10
2023-04-26T00:24:01.943Z,95.10
2023-04-26T00:26:29.880Z,95.10
2023-04-26T00:28:56.671Z,95.00
2023-04-26T00:31:23.496Z,95.00
2023-04-26T00:33:51.433Z,95.00
2023-04-26T00:36:19.448Z,95.00
2023-04-26T00:38:46.968Z,94.90
2023-04-26T00:41:14.577Z,94.90
2023-04-26T00:43:41.482Z,94.90
2023-04-26T00:46:09.866Z,94.90
2023-04-26T00:48:37.425Z,94.90
2023-04-26T00:51:05.853Z,94.90
2023-04-26T00:53:34.291Z,94.80
2023-04-26T00:56:01.369Z,94.80
2023-04-26T00:58:28.648Z,94.80
2023-04-26T01:00:56.138Z,94.80
2023-04-26T01:03:23.115Z,94.80
2023-04-26T01:05:50.503Z,94.70
2023-04-26T01:08:20.781Z,94.70
2023-04-26T01:10:50.873Z,94.70
2023-04-26T01:13:17.822Z,94.70
2023-04-26T01:15:48.293Z,94.70
2023-04-26T01:18:15.424Z,94.70
2023-04-26T01:20:43.290Z,94.70
2023-04-26T01:23:11.541Z,94.70
2023-04-26T01:25:38.517Z,94.70
2023-04-26T01:28:05.534Z,94.70
2023-04-26T01:30:32.224Z,94.70
2023-04-26T01:32:59.421Z,94.70
2023-04-26T01:35:26.342Z,94.70
2023-04-26T01:37:53.130Z,94.70
2023-04-26T01:40:19.946Z,94.70
2023-04-26T01:42:46.707Z,94.70
2023-04-26T01:45:13.433Z,94.70
2023-04-26T01:47:40.404Z,94.70
2023-04-26T01:50:08.045Z,94.70
2023-04-26T01:52:34.789Z,94.70
2023-04-26T01:55:01.581Z,94.60
2023-04-26T01:57:28.244Z,94.60
2023-04-26T01:59:56.726Z,94.60
2023-04-26T02:02:23.419Z,94.50
2023-04-26T02:04:50.281Z,94.50
2023-04-26T02:07:17.086Z,94.60
2023-04-26T02:09:44.218Z,94.50
2023-04-26T02:12:10.960Z,94.40
2023-04-26T02:14:37.649Z,94.40
2023-04-26T02:17:04.853Z,94.40
2023-04-26T02:19:31.669Z,94.30
2023-04-26T02:21:58.562Z,94.30
2023-04-26T02:24:25.865Z,94.30
2023-04-26T02:26:54.628Z,94.30
2023-04-26T02:29:35.973Z,94.30
2023-04-26T02:32:08.659Z,94.20
2023-04-26T02:34:36.287Z,94.20
2023-04-26T02:37:03.050Z,94.20
2023-04-26T02:39:29.855Z,94.20
2023-04-26T02:41:57.500Z,94.20
2023-04-26T02:44:24.187Z,94.20
2023-04-26T02:46:51.144Z,94.20
2023-04-26T02:49:17.981Z,94.20
2023-04-26T02:51:44.678Z,94.10
2023-04-26T02:54:11.384Z,94.10
2023-04-26T02:56:38.052Z,94.10
2023-04-26T02:59:04.753Z,94.10
2023-04-26T03:01:31.520Z,94.10
2023-04-26T03:03:58.437Z,94.10
2023-04-26T03:06:25.296Z,94.10
2023-04-26T03:08:52.201Z,94.10
2023-04-26T03:11:19.212Z,94.10
2023-04-26T03:13:45.932Z,94.10
2023-04-26T03:16:12.769Z,94.10
2023-04-26T03:18:39.472Z,94.10
2023-04-26T03:21:06.598Z,94.10
2023-04-26T03:23:34.105Z,94.10
2023-04-26T03:26:00.849Z,94.10
2023-04-26T03:28:27.622Z,94.00
2023-04-26T03:30:56.752Z,94.00
2023-04-26T03:33:23.593Z,94.00
2023-04-26T03:35:51.552Z,94.00
2023-04-26T03:38:18.381Z,94.00
2023-04-26T03:40:45.097Z,94.00
2023-04-26T03:43:11.765Z,93.90
2023-04-26T03:45:38.501Z,94.00
2023-04-26T03:48:05.618Z,93.90
2023-04-26T03:50:32.594Z,93.90
2023-04-26T03:52:59.288Z,93.90
2023-04-26T03:55:26.212Z,93.90
2023-04-26T03:57:53.930Z,93.90
2023-04-26T04:00:21.390Z,94.00
2023-04-26T04:02:48.382Z,94.00
2023-04-26T04:05:15.503Z,94.00
2023-04-26T04:07:42.844Z,94.00
2023-04-26T04:10:10.892Z,94.00
2023-04-26T04:12:37.963Z,94.10
2023-04-26T04:15:05.028Z,94.10
2023-04-26T04:17:31.838Z,94.10
2023-04-26T04:19:58.706Z,94.10
2023-04-26T04:22:25.452Z,94.10
2023-04-26T04:24:52.266Z,94.10
2023-04-26T04:27:18.972Z,94.10
2023-04-26T04:29:46.230Z,94.20
2023-04-26T04:32:15.006Z,94.20
2023-04-26T04:34:41.800Z,94.20
2023-04-26T04:37:08.840Z,94.20
2023-04-26T04:39:35.666Z,94.20
2023-04-26T04:42:02.419Z,94.20
2023-04-26T04:44:29.380Z,94.20
2023-04-26T04:46:56.749Z,94.20
2023-04-26T04:49:24.955Z,94.30
2023-04-26T04:51:51.869Z,94.30
2023-04-26T04:54:19.210Z,94.30
2023-04-26T04:56:45.960Z,94.30
2023-04-26T04:59:12.791Z,94.30
2023-04-26T05:01:39.586Z,94.30
2023-04-26T05:04:07.586Z,94.30
2023-04-26T05:06:34.674Z,94.30
2023-04-26T05:09:01.731Z,94.30
2023-04-26T05:11:28.662Z,94.40
2023-04-26T05:13:55.652Z,94.40
2023-04-26T05:16:22.809Z,94.40
2023-04-26T05:18:49.739Z,94.40
2023-04-26T05:21:17.045Z,94.40
2023-04-26T05:23:43.879Z,94.50
2023-04-26T05:26:15.264Z,94.50
2023-04-26T05:28:42.285Z,94.50
2023-04-26T05:31:11.382Z,94.60
2023-04-26T05:33:38.523Z,94.60
2023-04-26T05:36:05.801Z,94.70
2023-04-26T05:38:32.590Z,94.60
2023-04-26T05:40:59.268Z,94.70
2023-04-26T05:43:26.392Z,94.60
2023-04-26T05:45:54.378Z,94.60
2023-04-26T05:48:22.338Z,94.60
2023-04-26T05:50:49.777Z,94.70
2023-04-26T05:53:16.695Z,94.70
2023-04-26T05:55:43.759Z,94.70
2023-04-26T05:58:10.767Z,94.70
2023-04-26T06:00:38.685Z,94.70
2023-04-26T06:03:05.992Z,94.70
2023-04-26T06:05:33.254Z,94.70
2023-04-26T06:08:01.479Z,94.80
2023-04-26T06:10:28.325Z,94.80
2023-04-26T06:12:55.141Z,94.80
2023-04-26T06:15:21.965Z,94.80
2023-04-26T06:17:48.958Z,94.80
2023-04-26T06:20:16.330Z,94.80
2023-04-26T06:22:43.224Z,94.80
2023-04-26T06:25:10.191Z,94.90
2023-04-26T06:27:39.012Z,94.90
2023-04-26T06:30:07.828Z,94.90
2023-04-26T06:32:34.740Z,95.00
2023-04-26T06:35:01.719Z,95.00
2023-04-26T06:37:28.621Z,94.90
2023-04-26T06:39:55.496Z,94.80
2023-04-26T06:42:22.476Z,94.90
2023-04-26T06:44:49.333Z,94.90
2023-04-26T06:47:16.059Z,95.00
2023-04-26T06:49:42.793Z,94.90
2023-04-26T06:52:09.816Z,94.70
2023-04-26T06:54:46.281Z,94.60
2023-04-26T06:57:20.698Z,94.60
2023-04-26T06:59:47.470Z,94.30
2023-04-26T07:02:15.824Z,94.40
2023-04-26T07:04:43.302Z,94.70
2023-04-26T07:07:13.019Z,94.80
2023-04-26T07:09:41.079Z,93.20
2023-04-26T07:12:08.135Z,92.60
2023-04-26T07:14:38.550Z,93.00
2023-04-26T07:17:06.507Z,91.90
2023-04-26T07:19:33.505Z,90.40
2023-04-26T07:22:00.186Z,90.70
2023-04-26T07:24:27.152Z,88.90
2023-04-26T07:26:54.094Z,80.00
2023-04-26T07:29:21.334Z,71.40
2023-04-26T07:31:48.699Z,50.00
2023-04-26T07:34:15.479Z,60.00
2023-04-26T07:36:42.168Z,31.10
2023-04-26T07:39:10.727Z,1.00
2023-04-26T07:41:37.785Z,3.60
2023-04-26T07:44:04.708Z,69.80
2023-04-26T07:46:33.786Z,1.00
2023-04-26T07:49:00.828Z,74.50
2023-04-26T07:51:27.929Z,8.80
2023-04-26T07:53:55.876Z,1.00
2023-04-26T07:56:24.307Z,41.70
2023-04-26T07:58:51.712Z,1.00
2023-04-26T08:01:18.826Z,1.00
2023-04-26T08:03:46.017Z,57.70
2023-04-26T08:06:13.086Z,83.70
2023-04-26T08:08:44.808Z,1.00
2023-04-26T08:11:12.031Z,1.00
2023-04-26T08:13:38.828Z,90.90
2023-04-26T08:16:06.469Z,86.90
2023-04-26T08:18:33.640Z,76.80
2023-04-26T08:21:00.530Z,83.40
2023-04-26T08:23:28.376Z,1.00
2023-04-26T08:25:55.162Z,1.00
2023-04-26T08:28:21.947Z,1.00
2023-04-26T08:30:48.803Z,1.00
2023-04-26T08:33:17.844Z,75.90
2023-04-26T08:35:44.869Z,4.00
2023-04-26T08:38:11.659Z,1.00
2023-04-26T08:40:38.617Z,1.00
2023-04-26T08:43:05.722Z,1.00
2023-04-26T08:45:35.168Z,1.00
2023-04-26T08:48:14.781Z,91.80
2023-04-26T08:50:44.283Z,81.70
2023-04-26T08:53:15.793Z,70.60
2023-04-26T08:55:47.448Z,62.80
2023-04-26T08:58:14.820Z,1.00
2023-04-26T09:00:43.987Z,1.00
2023-04-26T09:03:11.270Z,1.00
2023-04-26T09:05:43.946Z,1.00
2023-04-26T09:08:16.185Z,1.00
2023-04-26T09:10:43.123Z,1.00
2023-04-26T09:13:10.074Z,1.00
2023-04-26T09:15:37.009Z,1.00
2023-04-26T09:18:18.274Z,90.20
2023-04-26T09:20:45.907Z,76.50
2023-04-26T09:23:14.098Z,77.40
2023-04-26T09:25:41.404Z,74.50
2023-04-26T09:28:28.422Z,83.10
2023-04-26T09:30:55.178Z,77.10
2023-04-26T09:33:22.004Z,71.20
2023-04-26T09:35:48.853Z,73.90
2023-04-26T09:38:17.784Z,80.90
2023-04-26T09:40:46.601Z,72.60
2023-04-26T09:43:18.264Z,68.30
2023-04-26T09:45:51.435Z,92.40
2023-04-26T09:48:30.858Z,50.80
2023-04-26T09:51:03.491Z,1.00
2023-04-26T09:53:38.729Z,1.00
2023-04-26T09:56:16.183Z,1.00
2023-04-26T09:59:02.523Z,1.00
2023-04-26T10:01:30.368Z,1.00
2023-04-26T10:03:58.352Z,1.00
2023-04-26T10:06:25.717Z,1.00
2023-04-26T10:08:52.750Z,1.00
2023-04-26T10:11:21.631Z,1.00
2023-04-26T10:13:51.476Z,1.00
2023-04-26T10:16:19.514Z,1.00
2023-04-26T10:18:46.364Z,1.00
2023-04-26T10:21:20.348Z,1.00
2023-04-26T10:23:49.368Z,1.00
2023-04-26T10:26:51.644Z,1.00
2023-04-26T10:29:19.528Z,1.00
2023-04-26T10:32:04.474Z,89.70
2023-04-26T10:34:33.027Z,92.80
2023-04-26T10:37:17.210Z,68.60
2023-04-26T10:39:47.193Z,64.50
2023-04-26T10:42:30.985Z,67.40
2023-04-26T10:44:59.207Z,63.20
2023-04-26T10:47:38.881Z,65.20
2023-04-26T10:50:10.580Z,71.60
2023-04-26T10:52:58.576Z,76.70
2023-04-26T10:55:42.384Z,73.30
2023-04-26T10:58:40.901Z,73.10
2023-04-26T11:01:17.518Z,70.90
2023-04-26T11:04:05.050Z,71.40
2023-04-26T11:06:51.274Z,66.70
2023-04-26T11:09:36.272Z,69.20
2023-04-26T11:12:13.505Z,65.70
2023-04-26T11:14:42.276Z,60.10
2023-04-26T11:17:09.952Z,43.90
2023-04-26T11:19:36.964Z,68.00
2023-04-26T11:22:07.364Z,49.40
2023-04-26T11:24:39.090Z,10.00
2023-04-26T11:27:10.488Z,14.70
2023-04-26T11:29:37.547Z,1.00
2023-04-26T11:32:04.741Z,1.00
2023-04-26T11:34:35.703Z,1.00
2023-04-26T11:37:04.761Z,1.00
2023-04-26T11:39:32.741Z,13.80
2023-04-26T11:42:09.994Z,2.30
2023-04-26T11:44:38.196Z,1.00
2023-04-26T11:47:06.637Z,1.00
2023-04-26T11:49:36.092Z,1.00
2023-04-26T11:52:04.947Z,1.00
2023-04-26T11:54:33.622Z,1.00
2023-04-26T11:57:01.000Z,1.00
2023-04-26T11:59:30.169Z,1.00
2023-04-26T12:01:57.823Z,1.00
2023-04-26T12:04:31.446Z,1.00
2023-04-26T12:06:58.842Z,1.00
2023-04-26T12:09:31.726Z,1.00
2023-04-26T12:11:59.292Z,1.00
2023-04-26T12:14:39.637Z,1.00
2023-04-26T12:17:07.929Z,1.00
2023-04-26T12:19:36.788Z,1.00
2023-04-26T12:22:04.424Z,1.00
2023-04-26T12:24:36.955Z,1.00
2023-04-26T12:27:06.631Z,1.00
2023-04-26T12:29:33.973Z,1.00
2023-04-26T12:32:01.435Z,1.00
2023-04-26T12:34:28.772Z,1.00
2023-04-26T12:36:55.865Z,1.00
2023-04-26T12:39:23.013Z,1.00
2023-04-26T12:41:49.972Z,1.00
2023-04-26T12:44:17.574Z,1.00
2023-04-26T12:46:45.924Z,1.00
2023-04-26T12:49:13.148Z,1.00
2023-04-26T12:51:39.921Z,1.00
2023-04-26T12:54:06.656Z,1.00
2023-04-26T12:56:35.120Z,1.00
2023-04-26T12:59:02.137Z,1.00
2023-04-26T13:01:29.006Z,1.00
2023-04-26T13:03:56.938Z,1.00
2023-04-26T13:06:24.084Z,1.00
2023-04-26T13:08:50.849Z,1.00
2023-04-26T13:11:18.153Z,1.00
2023-04-26T13:13:45.240Z,1.00
2023-04-26T13:16:13.142Z,1.00
2023-04-26T13:18:40.704Z,1.00
2023-04-26T13:21:07.855Z,92.60
2023-04-26T13:23:34.704Z,93.20
2023-04-26T13:26:01.674Z,91.70
2023-04-26T13:28:28.447Z,90.40
2023-04-26T13:30:56.033Z,90.80
2023-04-26T13:33:23.037Z,90.00
2023-04-26T13:35:49.887Z,90.60
2023-04-26T13:38:17.176Z,92.10
2023-04-26T13:40:44.677Z,93.10
2023-04-26T13:43:11.578Z,92.10
2023-04-26T13:45:38.851Z,91.20
2023-04-26T13:48:06.130Z,89.40
2023-04-26T13:50:32.993Z,87.60
2023-04-26T13:53:00.151Z,88.30
2023-04-26T13:55:26.969Z,85.90
2023-04-26T13:57:53.776Z,85.00
2023-04-26T14:00:20.938Z,88.50
2023-04-26T14:02:48.554Z,89.20
2023-04-26T14:05:16.729Z,89.60
2023-04-26T14:07:43.723Z,89.00
2023-04-26T14:10:10.744Z,90.20
2023-04-26T14:12:37.516Z,90.00
2023-04-26T14:15:06.159Z,85.00
2023-04-26T14:17:33.537Z,88.90
2023-04-26T14:20:00.587Z,83.80
2023-04-26T14:22:27.403Z,82.10
2023-04-26T14:24:54.207Z,82.10
2023-04-26T14:27:20.960Z,84.00
2023-04-26T14:29:47.886Z,87.80
2023-04-26T14:32:14.927Z,87.70
2023-04-26T14:34:42.656Z,86.70
2023-04-26T14:37:09.539Z,86.90
2023-04-26T14:39:37.151Z,85.80
2023-04-26T14:42:04.135Z,84.60
2023-04-26T14:44:30.901Z,87.20
2023-04-26T14:46:57.697Z,84.30
2023-04-26T14:49:24.611Z,84.50
2023-04-26T14:51:53.563Z,84.30
2023-04-26T14:54:21.061Z,84.90
2023-04-26T14:56:48.381Z,86.60
2023-04-26T14:59:15.217Z,87.10
2023-04-26T15:01:42.081Z,86.10
2023-04-26T15:04:09.003Z,87.90
2023-04-26T15:06:36.124Z,82.60
2023-04-26T15:09:04.025Z,82.90
2023-04-26T15:11:30.889Z,84.90
2023-04-26T15:13:57.616Z,85.10
2023-04-26T15:16:24.475Z,82.70
2023-04-26T15:18:51.561Z,84.20
2023-04-26T15:21:19.720Z,83.00
2023-04-26T15:23:46.699Z,83.10
2023-04-26T15:26:14.056Z,84.20
2023-04-26T15:28:40.878Z,84.40
2023-04-26T15:31:11.391Z,79.80
2023-04-26T15:33:38.363Z,82.10
2023-04-26T15:36:05.722Z,81.70
2023-04-26T15:38:34.890Z,80.10
2023-04-26T15:41:01.775Z,81.20
2023-04-26T15:43:28.637Z,81.10
2023-04-26T15:45:55.665Z,82.20
2023-04-26T15:48:22.512Z,81.40
2023-04-26T15:50:50.631Z,80.20
2023-04-26T15:53:17.822Z,81.60
2023-04-26T15:55:44.802Z,84.80
2023-04-26T15:58:11.843Z,84.80
2023-04-26T16:00:38.794Z,83.30
2023-04-26T16:03:05.829Z,83.30
2023-04-26T16:05:32.909Z,85.10
2023-04-26T16:07:59.789Z,85.70
2023-04-26T16:10:27.056Z,86.90
2023-04-26T16:12:53.835Z,86.60
2023-04-26T16:15:20.696Z,85.90
2023-04-26T16:17:47.540Z,86.10
2023-04-26T16:20:15.207Z,87.40
2023-04-26T16:22:45.088Z,87.40
2023-04-26T16:25:12.156Z,86.60
2023-04-26T16:27:38.919Z,88.00
2023-04-26T16:30:06.244Z,86.40
2023-04-26T16:32:34.081Z,84.60
2023-04-26T16:35:01.047Z,83.30
2023-04-26T16:37:27.877Z,85.20
2023-04-26T16:39:55.788Z,84.10
2023-04-26T16:42:22.854Z,82.80
2023-04-26T16:44:49.606Z,84.40
2023-04-26T16:47:16.327Z,83.50
2023-04-26T16:49:43.129Z,83.50
2023-04-26T16:52:09.867Z,85.30
2023-04-26T16:54:36.618Z,86.80
2023-04-26T16:57:04.421Z,85.10
2023-04-26T16:59:31.318Z,87.00
2023-04-26T17:01:58.219Z,87.70
2023-04-26T17:04:26.324Z,87.80
2023-04-26T17:06:53.853Z,90.00
2023-04-26T17:09:20.707Z,91.00
2023-04-26T17:11:47.467Z,90.70
2023-04-26T17:14:14.236Z,91.20
2023-04-26T17:16:41.158Z,92.00
2023-04-26T17:19:08.111Z,91.30
2023-04-26T17:21:34.901Z,91.80
2023-04-26T17:24:01.756Z,1.00
2023-04-26T17:26:28.539Z,1.00
2023-04-26T17:28:56.305Z,1.00
2023-04-26T17:31:23.174Z,1.00
2023-04-26T17:33:50.234Z,1.00
2023-04-26T17:36:17.800Z,1.00
2023-04-26T17:38:44.606Z,1.00
2023-04-26T17:41:13.428Z,1.00
2023-04-26T17:43:40.383Z,1.00
2023-04-26T17:46:07.154Z,1.00
2023-04-26T17:48:33.943Z,1.00
2023-04-26T17:51:00.840Z,1.00
2023-04-26T17:53:27.855Z,1.00
2023-04-26T17:55:55.195Z,1.00
2023-04-26T17:58:21.963Z,1.00
2023-04-26T18:00:49.122Z,1.00
2023-04-26T18:03:16.034Z,1.00
2023-04-26T18:05:42.887Z,1.00
2023-04-26T18:08:09.755Z,1.00
2023-04-26T18:10:36.485Z,1.00
2023-04-26T18:13:03.204Z,1.00
2023-04-26T18:15:29.990Z,1.00
2023-04-26T18:17:56.789Z,1.00
2023-04-26T18:20:23.655Z,1.00
2023-04-26T18:22:50.579Z,1.00
2023-04-26T18:25:17.312Z,1.00
2023-04-26T18:27:44.139Z,1.00
2023-04-26T18:30:12.747Z,46.30
2023-04-26T18:32:39.602Z,90.80
2023-04-26T18:35:07.701Z,1.00
2023-04-26T18:37:34.551Z,63.40
2023-04-26T18:40:01.229Z,1.00
2023-04-26T18:42:28.037Z,1.00
2023-04-26T18:44:55.110Z,1.00
2023-04-26T18:47:21.945Z,1.00
2023-04-26T18:49:48.683Z,1.00
2023-04-26T18:52:15.503Z,1.00
2023-04-26T18:54:42.242Z,1.00
2023-04-26T18:57:10.686Z,66.30
2023-04-26T18:59:37.584Z,64.20
2023-04-26T19:02:05.307Z,83.40
2023-04-26T19:04:32.453Z,1.00
2023-04-26T19:07:00.751Z,90.00
2023-04-26T19:09:27.483Z,1.00
2023-04-26T19:11:54.266Z,1.00
2023-04-26T19:14:21.001Z,1.00
2023-04-26T19:16:48.037Z,1.00
2023-04-26T19:19:14.886Z,1.00
2023-04-26T19:21:41.863Z,1.00
2023-04-26T19:24:08.838Z,83.50
2023-04-26T19:26:37.328Z,85.50
2023-04-26T19:29:06.197Z,81.30
2023-04-26T19:31:33.920Z,26.90
2023-04-26T19:34:00.823Z,1.00
2023-04-26T19:36:27.572Z,14.10
2023-04-26T19:38:54.400Z,1.00
2023-04-26T19:41:21.522Z,1.00
2023-04-26T19:43:48.284Z,15.40
2023-04-26T19:46:15.499Z,60.10
2023-04-26T19:48:42.599Z,50.50
2023-04-26T19:51:15.361Z,60.90
2023-04-26T19:53:42.125Z,62.10
2023-04-26T19:56:10.900Z,90.60
2023-04-26T19:58:38.773Z,1.00
2023-04-26T20:01:05.923Z,1.00
2023-04-26T20:03:33.176Z,1.00
2023-04-26T20:06:00.175Z,1.00
2023-04-26T20:08:26.951Z,60.30
2023-04-26T20:10:53.684Z,73.40
2023-04-26T20:13:20.404Z,1.00
2023-04-26T20:15:47.179Z,1.00
2023-04-26T20:18:13.872Z,1.00
2023-04-26T20:20:40.651Z,1.00
2023-04-26T20:23:07.832Z,70.90
2023-04-26T20:25:34.955Z,1.00
2023-04-26T20:28:03.632Z,69.70
2023-04-26T20:30:33.670Z,1.00
2023-04-26T20:33:00.779Z,1.00
2023-04-26T20:35:27.673Z,1.00
2023-04-26T20:37:54.425Z,70.70
2023-04-26T20:40:22.069Z,62.80
2023-04-26T20:42:48.887Z,59.30
2023-04-26T20:45:16.611Z,71.20
2023-04-26T20:47:43.785Z,70.60
2023-04-26T20:50:11.001Z,15.50
2023-04-26T20:52:37.913Z,73.10
2023-04-26T20:55:05.276Z,1.00
2023-04-26T20:57:31.962Z,1.00
2023-04-26T20:59:58.731Z,67.30
2023-04-26T21:02:25.571Z,85.30
2023-04-26T21:04:52.627Z,74.50
2023-04-26T21:07:19.509Z,68.10
2023-04-26T21:09:46.440Z,62.50
2023-04-26T21:12:13.159Z,83.20
2023-04-26T21:14:39.904Z,30.40
2023-04-26T21:17:06.674Z,1.00
2023-04-26T21:19:33.438Z,1.00
2023-04-26T21:22:00.477Z,21.50
2023-04-26T21:24:27.331Z,1.00
2023-04-26T21:26:54.125Z,1.00
2023-04-26T21:29:20.945Z,61.10
2023-04-26T21:31:47.738Z,61.30
2023-04-26T21:34:14.585Z,1.00
2023-04-26T21:36:41.348Z,1.00
2023-04-26T21:39:09.276Z,1.00
2023-04-26T21:41:36.257Z,1.00
2023-04-26T21:44:02.929Z,31.90
2023-04-26T21:46:29.719Z,48.70
2023-04-26T21:48:56.733Z,63.10
2023-04-26T21:51:23.593Z,60.90
2023-04-26T21:53:50.526Z,1.00
2023-04-26T21:56:17.219Z,84.80
2023-04-26T21:58:43.936Z,86.40
2023-04-26T22:01:13.296Z,1.00
2023-04-26T22:03:40.703Z,62.60
2023-04-26T22:06:08.534Z,92.70
2023-04-26T22:08:35.888Z,1.00
2023-04-26T22:11:03.136Z,56.10
2023-04-26T22:13:30.821Z,94.80
2023-04-26T22:15:57.646Z,1.00
2023-04-26T22:18:25.913Z,1.00
2023-04-26T22:20:53.471Z,69.80
2023-04-26T22:23:20.404Z,94.00
2023-04-26T22:25:47.142Z,1.00
2023-04-26T22:28:13.944Z,1.00
2023-04-26T22:30:40.743Z,1.00
2023-04-26T22:33:07.582Z,1.00
2023-04-26T22:35:35.008Z,77.00
2023-04-26T22:38:01.762Z,1.00
2023-04-26T22:40:28.575Z,1.00
2023-04-26T22:42:55.572Z,70.40
2023-04-26T22:45:22.841Z,88.80
2023-04-26T22:47:49.805Z,94.90
2023-04-26T22:50:16.608Z,95.00
2023-04-26T22:52:43.376Z,1.00
2023-04-26T22:55:10.271Z,64.50
2023-04-26T22:57:37.509Z,85.80
2023-04-26T23:00:05.730Z,85.60
2023-04-26T23:02:32.892Z,76.80
2023-04-26T23:04:59.822Z,19.40
2023-04-26T23:07:26.813Z,72.20
2023-04-26T23:09:53.977Z,93.80
2023-04-26T23:12:20.778Z,51.40
2023-04-26T23:14:48.721Z,60.70
2023-04-26T23:17:15.692Z,80.50
2023-04-26T23:19:42.745Z,89.60
2023-04-26T23:22:09.539Z,89.80
2023-04-26T23:24:36.417Z,1.00
2023-04-26T23:27:03.807Z,1.00
2023-04-26T23:29:30.894Z,1.00
2023-04-26T23:31:57.636Z,1.00
2023-04-26T23:34:24.511Z,1.00
2023-04-26T23:36:51.244Z,7.20
2023-04-26T23:39:18.202Z,25.30
2023-04-26T23:41:45.209Z,21.20
2023-04-26T23:44:11.990Z,42.60
2023-04-26T23:46:38.771Z,63.60
2023-04-26T23:49:05.615Z,65.80
2023-04-26T23:51:32.465Z,68.50
2023-04-26T23:53:59.250Z,72.50
2023-04-26T23:56:26.124Z,71.00
2023-04-26T23:58:52.920Z,73.00
